This is the latest recevied weather packets stored in our database for station/object WA7CUG. If no packets are shown the sender has not sent any weather packets the latest 10 day(s).
| Time | Temp. | Humidity | Pressure | Rain* | Wind** | Luminosity | Snow |
|---|---|---|---|---|---|---|---|
| 1778079734 | 18.33° C | 56% | 1013.7 hPa | 0 mm | - | 207 W/m² | - |
| 1778079431 | 17.78° C | 55% | 1013.8 hPa | 0 mm | - | 163 W/m² | - |
| 1778079127 | 17.78° C | 61% | 1013.6 hPa | 0 mm | - | 179 W/m² | - |
| 1778078825 | 17.22° C | 58% | 1013.5 hPa | 0 mm | - | 161 W/m² | - |
| 1778078522 | 17.22° C | 58% | 1013.8 hPa | 0 mm | - | 155 W/m² | - |
| 1778078219 | 16.67° C | 62% | 1013.8 hPa | 0 mm | - | 142 W/m² | - |
| 1778077917 | 16.11° C | 62% | 1013.6 hPa | 0 mm | - | 134 W/m² | - |
| 1778077615 | 15.56° C | 62% | 1013.7 hPa | 0 mm | - | 122 W/m² | - |
| 1778077313 | 15.56° C | 63% | 1013.6 hPa | 0 mm | - | 113 W/m² | - |
| 1778077010 | 15.56° C | 63% | 1013.7 hPa | 0 mm | - | 103 W/m² | - |
| 1778076708 | 15.56° C | 63% | 1013.6 hPa | 0 mm | - | 94 W/m² | - |
| 1778076406 | 15.56° C | 62% | 1013.6 hPa | 0 mm | - | 84 W/m² | - |
| 1778076103 | 15.56° C | 62% | 1013.4 hPa | 0 mm | - | 76 W/m² | - |
| 1778075800 | 15.56° C | 64% | 1013.5 hPa | 0 mm | - | 68 W/m² | - |
| 1778075496 | 15° C | 64% | 1013.4 hPa | 0 mm | - | 60 W/m² | - |
| 1778075192 | 15° C | 64% | 1013.4 hPa | 0 mm | - | 55 W/m² | - |
| 1778074888 | 15° C | 65% | 1013.4 hPa | 0 mm | - | 49 W/m² | - |
| 1778074586 | 14.44° C | 66% | 1013.5 hPa | 0 mm | - | 44 W/m² | - |
| 1778074283 | 13.89° C | 66% | 1013.3 hPa | 0 mm | - | 38 W/m² | - |
| 1778073980 | 13.89° C | 67% | 1013.4 hPa | 0 mm | - | 35 W/m² | - |
| 1778073677 | 13.89° C | 67% | 1013.2 hPa | 0 mm | - | 31 W/m² | - |
| 1778073374 | 13.33° C | 67% | 1013 hPa | 0 mm | - | 27 W/m² | - |
| 1778073070 | 13.33° C | 68% | 1013 hPa | 0 mm | - | 24 W/m² | - |
| 1778072768 | 13.33° C | 68% | 1013.1 hPa | 0 mm | - | 20 W/m² | - |
| 1778072465 | 12.78° C | 69% | 1012.9 hPa | 0 mm | - | 17 W/m² | - |
* Rain latest hour (hover to see other rain measurements)
** Current wind speed in m/s (hover to see current wind gust speed)